Time;durP1;ratioP1;P1;durP2;ratioP2;P2;SDS_P1;SDS_P2;PMS_P1;PMS_P2;Temp;Humidity;BMP_temperature;BMP_pressure;BME280_temperature;BME280_humidity;BME280_pressure;Samples;Min_cycle;Max_cycle;Signal;HPM_P1;HPM_P2
2022/08/07 00:00:48;;;;;;;5.35;4.85;;;;;;;;;;5130316;27;20401;-54
2022/08/07 00:03:15;;;;;;;5.60;4.93;;;;;;;;;;5130471;28;20398;-54
2022/08/07 00:05:41;;;;;;;5.50;4.90;;;;;;;;;;5130689;27;20406;-54
2022/08/07 00:08:07;;;;;;;5.70;5.20;;;;;;;;;;5132857;27;20416;-53
2022/08/07 00:10:33;;;;;;;7.47;5.20;;;;;;;;;;5132903;27;20425;-54
2022/08/07 00:13:00;;;;;;;5.97;5.25;;;;;;;;;;5128033;27;20865;-54
2022/08/07 00:15:26;;;;;;;5.72;5.22;;;;;;;;;;5113270;28;20909;-53
2022/08/07 00:17:52;;;;;;;6.03;5.25;;;;;;;;;;5113075;28;20404;-53
2022/08/07 00:20:20;;;;;;;5.80;5.30;;;;;;;;;;5111633;28;20389;-53
2022/08/07 00:22:46;;;;;;;6.15;5.50;;;;;;;;;;5114318;28;20445;-53
2022/08/07 00:25:12;;;;;;;5.78;5.28;;;;;;;;;;5110933;28;20403;-53
2022/08/07 00:27:37;;;;;;;5.90;5.30;;;;;;;;;;5112770;28;20677;-53
2022/08/07 00:30:04;;;;;;;5.87;5.27;;;;;;;;;;5113783;28;20603;-53
2022/08/07 00:32:30;;;;;;;6.95;5.43;;;;;;;;;;5112199;28;20419;-52
2022/08/07 00:34:56;;;;;;;6.50;5.55;;;;;;;;;;5113294;28;20396;-54
2022/08/07 00:37:25;;;;;;;7.63;5.65;;;;;;;;;;5113291;28;20396;-54
2022/08/07 00:39:53;;;;;;;6.75;5.30;;;;;;;;;;5111833;28;20787;-54
2022/08/07 00:42:19;;;;;;;6.32;5.18;;;;;;;;;;5112017;28;20400;-54
2022/08/07 00:44:45;;;;;;;5.85;5.25;;;;;;;;;;5113281;28;20727;-54
2022/08/07 00:47:11;;;;;;;6.25;5.15;;;;;;;;;;5111270;28;20411;-54
2022/08/07 00:49:37;;;;;;;5.88;5.30;;;;;;;;;;5113057;28;20767;-54
2022/08/07 00:52:05;;;;;;;6.10;5.28;;;;;;;;;;5113194;28;20384;-54
2022/08/07 00:54:32;;;;;;;5.57;5.07;;;;;;;;;;5113077;28;20400;-54
2022/08/07 00:56:58;;;;;;;6.10;5.10;;;;;;;;;;5113011;28;20401;-54
2022/08/07 00:59:24;;;;;;;6.55;5.55;;;;;;;;;;5112906;28;20400;-54
2022/08/07 01:01:50;;;;;;;6.03;5.43;;;;;;;;;;5112682;28;20395;-54
2022/08/07 01:04:17;;;;;;;6.15;5.22;;;;;;;;;;5112918;28;20380;-54
2022/08/07 01:06:47;;;;;;;5.97;5.43;;;;;;;;;;5112632;28;20488;-54
2022/08/07 01:09:13;;;;;;;5.93;5.35;;;;;;;;;;5112562;28;20392;-54
2022/08/07 01:11:41;;;;;;;5.40;4.90;;;;;;;;;;5109373;28;20411;-54
2022/08/07 01:14:07;;;;;;;6.50;5.50;;;;;;;;;;5112620;28;20914;-54
2022/08/07 01:16:35;;;;;;;6.30;5.30;;;;;;;;;;5112232;28;20478;-54
2022/08/07 01:19:01;;;;;;;6.47;5.80;;;;;;;;;;5109588;28;20513;-54
2022/08/07 01:21:28;;;;;;;5.75;5.22;;;;;;;;;;5112009;28;20479;-54
2022/08/07 01:23:56;;;;;;;5.88;5.28;;;;;;;;;;5112255;28;20886;-57
2022/08/07 01:26:22;;;;;;;6.60;4.95;;;;;;;;;;5112105;28;20444;-55
2022/08/07 01:28:50;;;;;;;6.82;5.53;;;;;;;;;;5111792;28;20399;-54
2022/08/07 01:31:18;;;;;;;6.63;5.35;;;;;;;;;;5111706;28;20419;-54
2022/08/07 01:33:44;;;;;;;6.38;5.40;;;;;;;;;;5112233;28;20393;-54
2022/08/07 01:36:10;;;;;;;6.15;5.55;;;;;;;;;;5112085;28;20423;-54
2022/08/07 01:38:38;;;;;;;6.70;5.70;;;;;;;;;;5111876;28;20958;-55
2022/08/07 01:41:06;;;;;;;5.88;5.28;;;;;;;;;;5112175;28;20407;-54
2022/08/07 01:43:32;;;;;;;6.03;5.43;;;;;;;;;;5111885;28;20412;-54
2022/08/07 01:45:58;;;;;;;5.90;5.30;;;;;;;;;;5110451;28;20940;-54
2022/08/07 01:48:25;;;;;;;5.97;5.38;;;;;;;;;;5112196;28;20457;-55
2022/08/07 01:50:53;;;;;;;6.43;5.68;;;;;;;;;;5111698;28;20913;-54
2022/08/07 01:53:21;;;;;;;6.03;5.43;;;;;;;;;;5111722;28;20428;-55
2022/08/07 01:55:50;;;;;;;6.40;5.72;;;;;;;;;;5112183;28;20404;-54
2022/08/07 01:58:19;;;;;;;6.28;5.68;;;;;;;;;;5111908;28;20396;-54
2022/08/07 02:00:46;;;;;;;5.90;5.40;;;;;;;;;;5111921;28;20392;-54
2022/08/07 02:03:13;;;;;;;7.47;5.55;;;;;;;;;;5111744;28;20400;-54
2022/08/07 02:05:42;;;;;;;7.00;6.10;;;;;;;;;;5111757;28;20396;-54
2022/08/07 02:08:09;;;;;;;6.72;6.10;;;;;;;;;;5111428;28;20430;-54
2022/08/07 02:10:37;;;;;;;6.07;5.57;;;;;;;;;;5111408;28;20452;-55
2022/08/07 02:13:05;;;;;;;6.10;5.60;;;;;;;;;;5111644;28;20878;-54
2022/08/07 02:15:31;;;;;;;6.90;6.18;;;;;;;;;;5111646;28;20416;-54
2022/08/07 02:17:58;;;;;;;7.45;6.70;;;;;;;;;;5111377;28;20431;-54
2022/08/07 02:20:24;;;;;;;7.43;6.72;;;;;;;;;;5107556;28;20392;-54
2022/08/07 02:22:52;;;;;;;7.33;6.63;;;;;;;;;;5111159;28;20515;-54
2022/08/07 02:25:19;;;;;;;12.43;7.00;;;;;;;;;;5111268;28;20404;-54
2022/08/07 02:27:46;;;;;;;7.65;6.95;;;;;;;;;;5111333;28;20759;-54
2022/08/07 02:30:14;;;;;;;7.53;6.82;;;;;;;;;;5110332;28;20409;-54
2022/08/07 02:32:40;;;;;;;7.20;6.60;;;;;;;;;;5111480;28;20491;-54
2022/08/07 02:35:08;;;;;;;7.40;6.80;;;;;;;;;;5111027;28;20399;-54
2022/08/07 02:37:35;;;;;;;8.02;7.22;;;;;;;;;;5108654;28;20453;-54
2022/08/07 02:40:02;;;;;;;7.53;6.40;;;;;;;;;;5111206;28;21046;-54
2022/08/07 02:42:29;;;;;;;6.95;6.30;;;;;;;;;;5108860;28;20404;-54
2022/08/07 02:44:55;;;;;;;7.40;6.70;;;;;;;;;;5111190;28;20882;-54
2022/08/07 02:47:22;;;;;;;7.07;6.38;;;;;;;;;;5110723;28;20392;-54
2022/08/07 02:49:48;;;;;;;7.10;6.43;;;;;;;;;;5111084;28;20411;-54
2022/08/07 02:52:16;;;;;;;7.03;6.30;;;;;;;;;;5110564;28;20934;-54
2022/08/07 02:54:43;;;;;;;7.45;6.70;;;;;;;;;;5110502;28;20986;-54
2022/08/07 02:57:12;;;;;;;7.40;6.70;;;;;;;;;;5110080;28;20882;-54
2022/08/07 02:59:38;;;;;;;7.82;7.13;;;;;;;;;;5110634;28;20800;-54
2022/08/07 03:02:04;;;;;;;7.82;7.10;;;;;;;;;;5110406;28;20400;-54
2022/08/07 03:04:32;;;;;;;7.78;6.82;;;;;;;;;;5110653;28;20388;-54
2022/08/07 03:06:59;;;;;;;6.90;6.30;;;;;;;;;;5108687;28;20420;-54
2022/08/07 03:09:25;;;;;;;8.27;6.75;;;;;;;;;;5110205;28;20427;-54
2022/08/07 03:11:52;;;;;;;7.70;7.00;;;;;;;;;;5110184;28;20404;-54
2022/08/07 03:14:18;;;;;;;8.05;6.40;;;;;;;;;;5110591;28;20457;-54
2022/08/07 03:16:44;;;;;;;7.43;6.72;;;;;;;;;;5110259;28;20736;-54
2022/08/07 03:19:11;;;;;;;7.20;6.50;;;;;;;;;;5110276;28;20400;-54
2022/08/07 03:21:38;;;;;;;7.60;6.90;;;;;;;;;;5110207;28;20487;-54
2022/08/07 03:24:05;;;;;;;7.72;6.97;;;;;;;;;;5109480;28;20866;-54
2022/08/07 03:26:32;;;;;;;7.53;6.82;;;;;;;;;;5108792;28;20423;-54
2022/08/07 03:29:00;;;;;;;7.80;7.03;;;;;;;;;;5110303;28;20479;-54
2022/08/07 03:31:27;;;;;;;7.65;6.97;;;;;;;;;;5109117;28;20436;-54
2022/08/07 03:33:55;;;;;;;7.40;6.70;;;;;;;;;;5108581;28;20467;-54
2022/08/07 03:36:22;;;;;;;7.40;6.68;;;;;;;;;;5108529;28;20388;-54
2022/08/07 03:38:51;;;;;;;7.60;6.90;;;;;;;;;;5109803;28;20400;-54
2022/08/07 03:41:18;;;;;;;7.53;6.90;;;;;;;;;;5112114;28;20404;-53
2022/08/07 03:43:44;;;;;;;7.50;6.80;;;;;;;;;;5114475;28;20392;-55
2022/08/07 03:46:10;;;;;;;7.47;6.78;;;;;;;;;;5114325;28;20400;-54
2022/08/07 03:48:36;;;;;;;7.05;6.45;;;;;;;;;;5114282;28;20453;-54
2022/08/07 03:51:03;;;;;;;8.15;6.75;;;;;;;;;;5113616;28;20524;-54
2022/08/07 03:53:29;;;;;;;6.88;6.22;;;;;;;;;;5113918;28;20419;-53
2022/08/07 03:55:57;;;;;;;7.20;6.50;;;;;;;;;;5114212;28;20495;-54
2022/08/07 03:58:23;;;;;;;7.20;6.50;;;;;;;;;;5113832;28;20875;-53
2022/08/07 04:00:49;;;;;;;7.60;6.90;;;;;;;;;;5113998;28;20881;-54
2022/08/07 04:03:15;;;;;;;7.50;6.72;;;;;;;;;;5113959;28;20406;-54
2022/08/07 04:05:41;;;;;;;7.25;6.55;;;;;;;;;;5113665;28;20931;-54
2022/08/07 04:08:09;;;;;;;7.55;6.85;;;;;;;;;;5113640;28;20411;-54
2022/08/07 04:10:35;;;;;;;7.33;6.63;;;;;;;;;;5113965;28;20580;-54
2022/08/07 04:13:03;;;;;;;7.05;6.43;;;;;;;;;;5113894;28;20432;-54
2022/08/07 04:15:29;;;;;;;8.85;6.85;;;;;;;;;;5113757;28;20404;-54
2022/08/07 04:17:55;;;;;;;7.45;6.65;;;;;;;;;;5113628;28;20392;-55
2022/08/07 04:20:21;;;;;;;7.18;6.47;;;;;;;;;;5113637;28;20395;-54
2022/08/07 04:22:48;;;;;;;7.53;6.82;;;;;;;;;;5113623;28;20888;-54
2022/08/07 04:25:14;;;;;;;7.30;6.60;;;;;;;;;;5113620;28;20781;-54
2022/08/07 04:27:40;;;;;;;7.10;6.50;;;;;;;;;;5113751;28;20418;-53
2022/08/07 04:30:08;;;;;;;7.38;6.68;;;;;;;;;;5113271;28;20416;-54
2022/08/07 04:32:35;;;;;;;7.65;6.93;;;;;;;;;;5113147;28;20407;-54
2022/08/07 04:35:01;;;;;;;7.78;7.05;;;;;;;;;;5112609;28;20461;-54
2022/08/07 04:37:27;;;;;;;8.05;7.25;;;;;;;;;;5113138;28;20434;-54
2022/08/07 04:39:53;;;;;;;7.88;7.15;;;;;;;;;;5112658;28;20387;-54
2022/08/07 04:42:19;;;;;;;7.80;7.10;;;;;;;;;;5111436;28;20431;-54
2022/08/07 04:44:45;;;;;;;7.43;6.70;;;;;;;;;;5112355;28;20396;-53
2022/08/07 04:47:15;;;;;;;7.82;7.03;;;;;;;;;;5111745;28;20400;-54
2022/08/07 04:49:44;;;;;;;7.82;6.53;;;;;;;;;;5113034;28;20499;-54
2022/08/07 04:52:13;;;;;;;8.85;7.22;;;;;;;;;;5112175;28;20407;-54
2022/08/07 04:54:45;;;;;;;7.95;7.15;;;;;;;;;;5112930;28;20975;-53
2022/08/07 04:57:16;;;;;;;8.50;7.70;;;;;;;;;;5112930;28;20404;-54
2022/08/07 04:59:46;;;;;;;7.80;7.10;;;;;;;;;;5113017;28;20392;-54
2022/08/07 05:02:17;;;;;;;7.20;6.60;;;;;;;;;;5112694;28;20388;-54
2022/08/07 05:04:47;;;;;;;7.65;6.85;;;;;;;;;;5112735;28;20412;-53
2022/08/07 05:07:16;;;;;;;8.05;7.25;;;;;;;;;;5112378;28;20408;-54
2022/08/07 05:09:46;;;;;;;7.82;6.85;;;;;;;;;;5112888;28;20487;-54
2022/08/07 05:12:14;;;;;;;8.18;7.13;;;;;;;;;;5112207;28;20408;-54
2022/08/07 05:14:42;;;;;;;7.60;6.85;;;;;;;;;;5112353;28;20404;-54
2022/08/07 05:17:11;;;;;;;8.00;7.22;;;;;;;;;;5111272;28;20404;-54
2022/08/07 05:19:41;;;;;;;8.05;7.25;;;;;;;;;;5111678;28;20412;-54
2022/08/07 05:22:08;;;;;;;7.97;7.18;;;;;;;;;;5111718;28;20401;-54
2022/08/07 05:24:35;;;;;;;7.72;7.03;;;;;;;;;;5112150;28;20457;-54
2022/08/07 05:27:02;;;;;;;8.33;6.80;;;;;;;;;;5112514;28;20396;-54
2022/08/07 05:29:29;;;;;;;8.47;7.60;;;;;;;;;;5112295;28;20828;-54
2022/08/07 05:31:55;;;;;;;8.33;7.63;;;;;;;;;;5112236;28;20573;-54
2022/08/07 05:34:22;;;;;;;7.85;7.15;;;;;;;;;;5112140;28;20882;-54
2022/08/07 05:36:51;;;;;;;8.32;7.53;;;;;;;;;;5112070;28;20973;-54
2022/08/07 05:39:18;;;;;;;9.20;7.63;;;;;;;;;;5112049;28;20404;-54
2022/08/07 05:41:46;;;;;;;8.17;7.47;;;;;;;;;;5112018;28;20636;-54
2022/08/07 05:44:12;;;;;;;8.45;7.53;;;;;;;;;;5111828;28;20971;-54
2022/08/07 05:46:39;;;;;;;8.13;7.33;;;;;;;;;;5111921;28;20436;-54
2022/08/07 05:49:06;;;;;;;7.88;7.13;;;;;;;;;;5111874;28;20424;-54
2022/08/07 05:51:32;;;;;;;8.57;7.75;;;;;;;;;;5110105;28;20473;-54
2022/08/07 05:53:59;;;;;;;7.85;7.15;;;;;;;;;;5111659;28;20389;-54
2022/08/07 05:56:26;;;;;;;8.07;7.28;;;;;;;;;;5111368;28;20448;-54
2022/08/07 05:58:52;;;;;;;8.15;7.35;;;;;;;;;;5111337;28;20521;-54
2022/08/07 06:01:19;;;;;;;7.43;6.60;;;;;;;;;;5111608;28;20751;-54
2022/08/07 06:03:48;;;;;;;7.05;6.35;;;;;;;;;;5111394;27;20411;-54
2022/08/07 06:06:15;;;;;;;6.70;6.10;;;;;;;;;;5111501;28;20455;-54
2022/08/07 06:08:41;;;;;;;7.82;6.63;;;;;;;;;;5111202;28;20789;-54
2022/08/07 06:11:09;;;;;;;7.10;6.50;;;;;;;;;;5111517;28;20424;-54
2022/08/07 06:13:35;;;;;;;7.75;6.80;;;;;;;;;;5111112;28;20761;-54
2022/08/07 06:16:02;;;;;;;7.93;7.22;;;;;;;;;;5111515;28;20388;-54
2022/08/07 06:18:29;;;;;;;9.20;6.80;;;;;;;;;;5111334;28;20413;-54
2022/08/07 06:20:55;;;;;;;7.35;6.75;;;;;;;;;;5111456;28;20454;-54
2022/08/07 06:23:21;;;;;;;8.37;6.83;;;;;;;;;;5111018;28;20392;-54
2022/08/07 06:25:47;;;;;;;7.68;6.50;;;;;;;;;;5110741;28;20442;-54
2022/08/07 06:28:14;;;;;;;6.90;6.20;;;;;;;;;;5110478;28;20389;-55
2022/08/07 06:30:40;;;;;;;7.00;6.40;;;;;;;;;;5109520;28;20415;-55
2022/08/07 06:33:06;;;;;;;7.45;6.68;;;;;;;;;;5108824;28;20396;-55
2022/08/07 06:35:35;;;;;;;7.20;6.50;;;;;;;;;;5110555;28;20396;-55
2022/08/07 06:38:01;;;;;;;7.20;6.40;;;;;;;;;;5109803;28;20889;-54
2022/08/07 06:40:28;;;;;;;6.38;5.78;;;;;;;;;;5111144;28;20388;-55
2022/08/07 06:42:55;;;;;;;6.97;5.70;;;;;;;;;;5111470;28;20457;-55
2022/08/07 06:45:23;;;;;;;7.20;6.45;;;;;;;;;;5111232;28;20409;-54
2022/08/07 06:47:49;;;;;;;6.90;6.22;;;;;;;;;;5111099;28;20396;-54
2022/08/07 06:50:16;;;;;;;8.50;6.00;;;;;;;;;;5108305;28;20399;-54
2022/08/07 06:52:43;;;;;;;6.03;5.53;;;;;;;;;;5110401;28;20399;-55
2022/08/07 06:55:10;;;;;;;6.15;5.55;;;;;;;;;;5110853;28;20404;-55
2022/08/07 06:57:37;;;;;;;6.05;5.43;;;;;;;;;;5110634;28;20408;-54
2022/08/07 07:00:04;;;;;;;6.47;5.83;;;;;;;;;;5109788;28;20400;-55
2022/08/07 07:02:32;;;;;;;6.20;5.57;;;;;;;;;;5109787;28;20457;-55
2022/08/07 07:04:58;;;;;;;6.05;5.50;;;;;;;;;;5110271;28;20491;-55
2022/08/07 07:07:24;;;;;;;6.63;5.85;;;;;;;;;;5109779;28;20573;-55
2022/08/07 07:09:51;;;;;;;6.00;5.50;;;;;;;;;;5108531;28;20396;-55
2022/08/07 07:12:19;;;;;;;7.25;5.60;;;;;;;;;;5109006;28;20819;-55
2022/08/07 07:14:48;;;;;;;6.63;5.60;;;;;;;;;;5109533;28;20853;-55
2022/08/07 07:17:17;;;;;;;7.37;5.60;;;;;;;;;;5109325;28;20400;-55
2022/08/07 07:19:47;;;;;;;5.78;5.20;;;;;;;;;;5109627;28;20483;-55
2022/08/07 07:22:13;;;;;;;6.07;5.40;;;;;;;;;;5110433;28;20399;-55
2022/08/07 07:24:40;;;;;;;6.03;5.00;;;;;;;;;;5109627;28;20869;-55
2022/08/07 07:27:07;;;;;;;5.35;4.88;;;;;;;;;;5110045;28;20392;-54
2022/08/07 07:29:36;;;;;;;5.80;5.17;;;;;;;;;;5111282;28;20273;-54
2022/08/07 07:32:05;;;;;;;6.67;4.87;;;;;;;;;;5111244;28;20321;-55
2022/08/07 07:34:32;;;;;;;6.20;4.83;;;;;;;;;;5110225;28;20242;-55
2022/08/07 07:37:01;;;;;;;6.13;4.80;;;;;;;;;;5111584;28;20200;-55
2022/08/07 07:39:28;;;;;;;5.73;4.70;;;;;;;;;;5111371;28;20254;-55
2022/08/07 07:41:55;;;;;;;14.77;4.90;;;;;;;;;;5111406;28;20225;-58
2022/08/07 07:44:22;;;;;;;6.17;4.57;;;;;;;;;;5110713;28;20211;-58
2022/08/07 07:46:49;;;;;;;4.77;4.30;;;;;;;;;;5111186;28;20222;-57
2022/08/07 07:49:16;;;;;;;6.37;4.73;;;;;;;;;;5109875;28;20190;-58
2022/08/07 07:51:44;;;;;;;5.30;4.67;;;;;;;;;;5110909;28;20226;-57
2022/08/07 07:54:13;;;;;;;5.47;4.70;;;;;;;;;;5110761;28;20205;-57
2022/08/07 07:56:39;;;;;;;7.60;4.63;;;;;;;;;;5111963;28;20213;-58
2022/08/07 07:59:06;;;;;;;5.30;4.90;;;;;;;;;;5111999;28;20200;-57
2022/08/07 08:01:32;;;;;;;6.13;4.80;;;;;;;;;;5111808;28;20195;-57
2022/08/07 08:04:00;;;;;;;6.93;5.20;;;;;;;;;;5110571;28;20758;-57
2022/08/07 08:06:27;;;;;;;5.40;4.90;;;;;;;;;;5110190;28;20407;-57
2022/08/07 08:08:54;;;;;;;5.07;4.63;;;;;;;;;;5110794;28;20436;-57
2022/08/07 08:11:21;;;;;;;5.10;4.53;;;;;;;;;;5110173;28;20416;-57
2022/08/07 08:13:48;;;;;;;5.43;4.93;;;;;;;;;;5110457;28;20401;-57
2022/08/07 08:16:16;;;;;;;6.00;4.90;;;;;;;;;;5110797;28;20387;-57
2022/08/07 08:18:43;;;;;;;5.60;5.10;;;;;;;;;;5110624;28;20396;-57
2022/08/07 08:27:03;;;;;;;6.50;5.07;;;;;;;;;;5110468;28;20570;-57
2022/08/07 08:29:28;;;;;;;5.10;4.70;;;;;;;;;;5113830;28;20387;-57
2022/08/07 08:31:55;;;;;;;5.63;4.43;;;;;;;;;;5115199;28;20434;-57
2022/08/07 08:34:21;;;;;;;5.20;4.70;;;;;;;;;;5115080;28;20200;-57
2022/08/07 08:36:48;;;;;;;5.67;3.87;;;;;;;;;;5115221;28;20291;-58
2022/08/07 08:39:14;;;;;;;4.63;4.23;;;;;;;;;;5115267;28;20537;-57
2022/08/07 08:41:42;;;;;;;4.23;3.83;;;;;;;;;;5115130;28;20558;-57
2022/08/07 08:44:15;;;;;;;5.60;3.90;;;;;;;;;;5114928;28;20215;-57
2022/08/07 08:46:43;;;;;;;4.90;3.50;;;;;;;;;;5115092;28;20204;-58
2022/08/07 08:49:12;;;;;;;5.33;4.13;;;;;;;;;;5114813;28;20568;-57
2022/08/07 08:51:41;;;;;;;5.50;4.10;;;;;;;;;;5114693;28;20219;-57
2022/08/07 08:54:09;;;;;;;4.03;3.40;;;;;;;;;;5114804;28;20198;-57
2022/08/07 08:56:38;;;;;;;3.83;3.37;;;;;;;;;;5114632;28;20197;-57
2022/08/07 08:59:06;;;;;;;5.60;3.37;;;;;;;;;;5114642;28;20653;-57
2022/08/07 09:01:38;;;;;;;4.30;3.17;;;;;;;;;;5114653;28;20565;-57
2022/08/07 09:04:07;;;;;;;2.67;2.47;;;;;;;;;;5114749;28;20210;-57
2022/08/07 09:06:39;;;;;;;4.70;3.03;;;;;;;;;;5114270;28;20295;-57
2022/08/07 09:09:07;;;;;;;4.60;2.80;;;;;;;;;;5114779;28;20196;-57
2022/08/07 09:11:37;;;;;;;1.70;1.60;;;;;;;;;;5114334;28;20245;-57
2022/08/07 09:14:07;;;;;;;2.77;2.50;;;;;;;;;;5114458;28;20599;-57
2022/08/07 09:16:37;;;;;;;4.17;2.70;;;;;;;;;;5114380;28;20293;-57
2022/08/07 09:19:14;;;;;;;2.63;2.43;;;;;;;;;;5114617;28;20208;-57
2022/08/07 09:21:46;;;;;;;3.63;2.27;;;;;;;;;;5114312;28;20231;-58
2022/08/07 09:24:16;;;;;;;4.07;2.80;;;;;;;;;;5114332;28;20198;-57
2022/08/07 09:26:45;;;;;;;4.60;3.10;;;;;;;;;;5114269;28;20229;-57
2022/08/07 09:29:16;;;;;;;3.07;2.77;;;;;;;;;;5114158;28;20288;-60
2022/08/07 09:31:49;;;;;;;3.23;2.90;;;;;;;;;;5114192;28;20232;-57
2022/08/07 09:34:18;;;;;;;2.73;2.40;;;;;;;;;;5114135;28;20293;-57
2022/08/07 09:36:47;;;;;;;4.97;2.70;;;;;;;;;;5114080;28;20246;-57
2022/08/07 09:39:23;;;;;;;3.97;2.40;;;;;;;;;;5113619;28;20190;-57
2022/08/07 09:41:54;;;;;;;3.40;2.50;;;;;;;;;;5113918;28;20276;-57
2022/08/07 09:44:26;;;;;;;4.23;2.30;;;;;;;;;;5113756;28;20214;-57
2022/08/07 09:47:02;;;;;;;2.90;2.40;;;;;;;;;;5113916;28;20261;-57
2022/08/07 09:49:35;;;;;;;2.60;2.40;;;;;;;;;;5113791;28;20199;-58
2022/08/07 09:52:04;;;;;;;3.70;2.40;;;;;;;;;;5113834;28;20237;-58
2022/08/07 09:54:34;;;;;;;2.57;2.33;;;;;;;;;;5109758;28;20226;-57
2022/08/07 09:57:17;;;;;;;2.60;2.40;;;;;;;;;;5113453;28;20303;-58
2022/08/07 09:59:58;;;;;;;2.43;2.23;;;;;;;;;;5111644;28;20196;-58
2022/08/07 10:02:29;;;;;;;4.00;2.60;;;;;;;;;;5113371;28;20202;-58
2022/08/07 10:05:09;;;;;;;3.20;2.90;;;;;;;;;;5111341;28;20198;-58
2022/08/07 10:07:43;;;;;;;3.20;2.77;;;;;;;;;;5111479;28;20356;-58
2022/08/07 10:10:17;;;;;;;4.97;2.73;;;;;;;;;;5111532;28;20191;-58
2022/08/07 10:12:49;;;;;;;4.43;3.10;;;;;;;;;;5112243;28;20222;-58
2022/08/07 10:15:25;;;;;;;3.37;2.70;;;;;;;;;;5112842;28;20238;-57
2022/08/07 10:18:08;;;;;;;4.67;2.80;;;;;;;;;;5112652;28;20196;-58
2022/08/07 10:20:37;;;;;;;2.80;2.60;;;;;;;;;;5111276;28;20199;-58
2022/08/07 10:23:11;;;;;;;3.20;2.90;;;;;;;;;;5111846;28;20565;-58
2022/08/07 10:25:44;;;;;;;3.83;2.77;;;;;;;;;;5112563;28;20202;-58
2022/08/07 10:28:13;;;;;;;4.47;2.60;;;;;;;;;;5111113;28;20210;-58
2022/08/07 10:30:49;;;;;;;3.60;2.70;;;;;;;;;;5112699;28;20718;-58
2022/08/07 10:33:30;;;;;;;4.90;2.67;;;;;;;;;;5112773;28;20208;-58
2022/08/07 10:36:04;;;;;;;2.30;2.10;;;;;;;;;;5112638;28;20198;-58
2022/08/07 10:38:38;;;;;;;2.27;2.07;;;;;;;;;;5112615;28;20288;-58
2022/08/07 10:41:07;;;;;;;2.50;2.30;;;;;;;;;;5111718;28;20193;-57
2022/08/07 10:43:35;;;;;;;3.33;2.17;;;;;;;;;;5112775;28;20296;-58
2022/08/07 10:46:03;;;;;;;3.40;2.20;;;;;;;;;;5111081;28;20225;-58
2022/08/07 10:48:36;;;;;;;2.47;2.10;;;;;;;;;;5112727;28;20202;-58
2022/08/07 10:51:06;;;;;;;5.27;2.20;;;;;;;;;;5111916;28;20223;-58
2022/08/07 10:53:36;;;;;;;2.20;2.00;;;;;;;;;;5112768;28;20286;-58
2022/08/07 10:56:03;;;;;;;2.27;2.03;;;;;;;;;;5112455;28;20200;-58
2022/08/07 10:58:38;;;;;;;2.97;2.20;;;;;;;;;;5110452;28;20246;-58
2022/08/07 11:01:13;;;;;;;3.17;1.80;;;;;;;;;;5112541;28;20193;-58
2022/08/07 11:03:42;;;;;;;2.00;1.70;;;;;;;;;;5112300;28;20416;-58
2022/08/07 11:06:10;;;;;;;2.80;1.80;;;;;;;;;;5110419;28;20700;-58
2022/08/07 11:08:40;;;;;;;4.77;1.70;;;;;;;;;;5111125;28;20240;-58
2022/08/07 11:11:08;;;;;;;2.00;1.87;;;;;;;;;;5111909;28;20726;-58
2022/08/07 11:13:36;;;;;;;1.93;1.60;;;;;;;;;;5111884;28;20225;-58
2022/08/07 11:16:04;;;;;;;1.63;1.50;;;;;;;;;;5111995;28;20189;-58
2022/08/07 11:18:34;;;;;;;2.13;1.63;;;;;;;;;;5111957;28;20200;-57
2022/08/07 11:21:05;;;;;;;3.83;1.70;;;;;;;;;;5111827;28;20213;-58
2022/08/07 11:23:45;;;;;;;4.00;1.80;;;;;;;;;;5111736;28;20204;-58
2022/08/07 11:26:13;;;;;;;5.40;1.60;;;;;;;;;;5110751;28;20199;-58
2022/08/07 11:28:42;;;;;;;2.10;1.90;;;;;;;;;;5111574;28;20654;-58
2022/08/07 11:31:12;;;;;;;1.67;1.50;;;;;;;;;;5111828;28;20245;-58
2022/08/07 11:33:42;;;;;;;1.57;1.47;;;;;;;;;;5111501;28;20192;-58
2022/08/07 11:36:12;;;;;;;2.30;1.80;;;;;;;;;;5111583;28;20245;-58
2022/08/07 11:38:43;;;;;;;1.90;1.50;;;;;;;;;;5110139;28;20202;-58
2022/08/07 11:41:13;;;;;;;3.70;1.77;;;;;;;;;;5111414;28;20851;-58
2022/08/07 11:43:43;;;;;;;3.87;1.30;;;;;;;;;;5110202;28;20242;-58
2022/08/07 11:46:14;;;;;;;3.33;1.60;;;;;;;;;;5111939;28;20209;-57
2022/08/07 11:48:53;;;;;;;1.90;1.70;;;;;;;;;;5111913;28;20193;-58
2022/08/07 11:51:28;;;;;;;2.60;1.47;;;;;;;;;;5111618;28;20706;-58
2022/08/07 11:53:57;;;;;;;2.40;1.90;;;;;;;;;;5111956;28;20295;-58
2022/08/07 11:56:35;;;;;;;2.17;1.50;;;;;;;;;;5111690;28;20211;-58
2022/08/07 11:59:08;;;;;;;1.73;1.63;;;;;;;;;;5112041;28;20205;-58
2022/08/07 12:01:46;;;;;;;2.83;1.50;;;;;;;;;;5112273;28;20196;-58
2022/08/07 12:04:30;;;;;;;1.67;1.50;;;;;;;;;;5115894;28;20207;-58
2022/08/07 12:07:00;;;;;;;1.80;1.50;;;;;;;;;;5115199;28;20683;-58
2022/08/07 12:09:30;;;;;;;1.80;1.37;;;;;;;;;;5115879;28;20722;-58
2022/08/07 12:12:00;;;;;;;1.60;1.50;;;;;;;;;;5115565;28;20714;-58
2022/08/07 12:14:29;;;;;;;2.57;1.57;;;;;;;;;;5115468;28;20673;-58
2022/08/07 12:16:57;;;;;;;2.10;1.60;;;;;;;;;;5115554;28;20243;-58
2022/08/07 12:19:27;;;;;;;2.73;2.00;;;;;;;;;;5115380;28;20213;-58
2022/08/07 12:21:57;;;;;;;2.63;1.80;;;;;;;;;;5115636;28;20443;-58
2022/08/07 12:24:30;;;;;;;1.57;1.47;;;;;;;;;;5115384;28;20279;-58
2022/08/07 12:27:02;;;;;;;2.50;1.60;;;;;;;;;;5115541;28;20201;-58
2022/08/07 12:29:30;;;;;;;1.57;1.47;;;;;;;;;;5115359;28;20197;-58
2022/08/07 12:31:58;;;;;;;2.40;1.67;;;;;;;;;;5114981;28;20247;-58
2022/08/07 12:34:25;;;;;;;2.27;1.80;;;;;;;;;;5113368;28;20192;-58
2022/08/07 12:36:52;;;;;;;1.77;1.60;;;;;;;;;;5113423;28;20201;-58
2022/08/07 12:39:19;;;;;;;1.70;1.60;;;;;;;;;;5115231;28;20194;-57
2022/08/07 12:41:46;;;;;;;2.00;1.70;;;;;;;;;;5112982;28;20204;-57
2022/08/07 12:44:13;;;;;;;2.60;1.90;;;;;;;;;;5114785;28;20229;-57
2022/08/07 12:46:42;;;;;;;3.13;1.80;;;;;;;;;;5113223;28;20202;-57
2022/08/07 12:49:11;;;;;;;2.13;1.90;;;;;;;;;;5114528;28;20200;-57
2022/08/07 12:51:41;;;;;;;2.13;1.60;;;;;;;;;;5114681;28;20691;-57
2022/08/07 12:54:12;;;;;;;2.00;1.60;;;;;;;;;;5114588;28;20193;-57
2022/08/07 12:56:41;;;;;;;3.10;1.40;;;;;;;;;;5114469;28;20589;-57
2022/08/07 12:59:10;;;;;;;3.43;1.80;;;;;;;;;;5114558;28;20199;-57
2022/08/07 13:01:42;;;;;;;2.53;1.93;;;;;;;;;;5113039;28;20202;-57
2022/08/07 13:04:13;;;;;;;2.73;1.60;;;;;;;;;;5113962;28;20197;-57
2022/08/07 13:06:58;;;;;;;2.47;1.80;;;;;;;;;;5113830;28;20194;-57
2022/08/07 13:09:30;;;;;;;2.47;1.67;;;;;;;;;;5114258;28;20310;-57
2022/08/07 13:11:59;;;;;;;2.70;1.83;;;;;;;;;;5114429;28;20228;-57
2022/08/07 13:14:30;;;;;;;3.47;2.10;;;;;;;;;;5111742;28;20573;-57
2022/08/07 13:17:01;;;;;;;3.10;1.80;;;;;;;;;;5113544;28;20199;-57
2022/08/07 13:19:32;;;;;;;2.40;1.67;;;;;;;;;;5113980;28;20233;-57
2022/08/07 13:22:02;;;;;;;2.60;1.90;;;;;;;;;;5112689;28;20560;-57
2022/08/07 13:24:34;;;;;;;2.30;1.80;;;;;;;;;;5113980;28;20259;-57
2022/08/07 13:27:11;;;;;;;2.00;1.80;;;;;;;;;;5114138;28;20194;-56
2022/08/07 13:29:43;;;;;;;2.10;1.90;;;;;;;;;;5113447;28;20195;-56
2022/08/07 13:32:14;;;;;;;2.47;1.70;;;;;;;;;;5112582;28;20287;-56
2022/08/07 13:34:44;;;;;;;3.67;1.77;;;;;;;;;;5113986;28;20563;-57
2022/08/07 13:37:15;;;;;;;2.07;1.63;;;;;;;;;;5113817;28;20198;-56
2022/08/07 13:39:45;;;;;;;3.40;1.90;;;;;;;;;;5113652;28;20196;-56
2022/08/07 13:42:13;;;;;;;1.93;1.73;;;;;;;;;;5113637;28;20616;-57
2022/08/07 13:44:41;;;;;;;2.00;1.80;;;;;;;;;;5113354;28;20214;-57
2022/08/07 13:47:10;;;;;;;3.27;1.73;;;;;;;;;;5113681;28;20204;-56
2022/08/07 13:49:39;;;;;;;4.43;1.90;;;;;;;;;;5113371;28;20191;-57
2022/08/07 13:52:06;;;;;;;2.03;1.83;;;;;;;;;;5113422;28;20227;-57
2022/08/07 13:54:34;;;;;;;2.10;1.90;;;;;;;;;;5113585;28;20197;-57
2022/08/07 13:57:02;;;;;;;2.00;1.80;;;;;;;;;;5112310;28;20619;-57
2022/08/07 13:59:30;;;;;;;2.10;1.60;;;;;;;;;;5113248;28;20199;-57
2022/08/07 14:02:06;;;;;;;1.97;1.50;;;;;;;;;;5113470;28;20193;-57
2022/08/07 14:04:34;;;;;;;2.97;1.70;;;;;;;;;;5113287;28;20211;-57
2022/08/07 14:07:04;;;;;;;3.57;1.80;;;;;;;;;;5113002;28;20240;-57
2022/08/07 14:09:32;;;;;;;3.20;1.63;;;;;;;;;;5111952;28;20648;-57
2022/08/07 14:12:01;;;;;;;2.37;1.90;;;;;;;;;;5113302;28;20232;-57
2022/08/07 14:14:30;;;;;;;2.57;2.00;;;;;;;;;;5113106;28;20199;-57
2022/08/07 14:16:58;;;;;;;1.70;1.60;;;;;;;;;;5113042;28;20270;-57
2022/08/07 14:19:29;;;;;;;2.53;1.70;;;;;;;;;;5116946;27;20197;-57
2022/08/07 14:21:56;;;;;;;2.27;1.83;;;;;;;;;;5131142;27;20651;-57
2022/08/07 14:24:26;;;;;;;2.13;1.70;;;;;;;;;;5133335;27;20284;-57
2022/08/07 14:26:55;;;;;;;1.60;1.50;;;;;;;;;;5132522;27;20194;-58
2022/08/07 14:29:23;;;;;;;1.83;1.73;;;;;;;;;;5132794;27;20194;-58
2022/08/07 14:31:49;;;;;;;4.57;1.97;;;;;;;;;;5130692;27;20684;-57
2022/08/07 14:34:19;;;;;;;2.07;1.60;;;;;;;;;;5132325;27;20194;-57
2022/08/07 14:36:45;;;;;;;2.00;1.80;;;;;;;;;;5131019;27;20216;-58
2022/08/07 14:39:11;;;;;;;5.13;1.70;;;;;;;;;;5132159;27;20227;-58
2022/08/07 14:41:38;;;;;;;1.87;1.60;;;;;;;;;;5132513;27;20898;-58
2022/08/07 14:44:07;;;;;;;3.73;1.77;;;;;;;;;;5132296;27;20218;-58
2022/08/07 14:46:34;;;;;;;2.33;1.77;;;;;;;;;;5132708;27;20290;-58
2022/08/07 14:49:01;;;;;;;3.90;2.00;;;;;;;;;;5132516;27;20199;-58
2022/08/07 14:51:29;;;;;;;2.00;1.90;;;;;;;;;;5131603;27;20275;-58
2022/08/07 14:53:56;;;;;;;1.67;1.57;;;;;;;;;;5132508;27;20202;-58
2022/08/07 14:56:24;;;;;;;5.07;1.90;;;;;;;;;;5132391;27;20233;-59